Time;durP1;ratioP1;P1;durP2;ratioP2;P2;SDS_P1;SDS_P2;PMS_P1;PMS_P2;Temp;Humidity;BMP_temperature;BMP_pressure;BME280_temperature;BME280_humidity;BME280_pressure;Samples;Min_cycle;Max_cycle;Signal;HPM_P1;HPM_P2
2022/07/19 00:00:15;;;;;;;4.63;3.30;;;26.90;50.60;;;;;;4985623;28;20937;-85
2022/07/19 00:02:42;;;;;;;3.00;2.70;;;26.80;53.00;;;;;;4998385;28;20443;-84
2022/07/19 00:05:10;;;;;;;5.57;3.57;;;26.80;52.70;;;;;;4995375;28;20464;-86
2022/07/19 00:07:38;;;;;;;3.73;3.43;;;26.60;54.30;;;;;;4977984;28;20953;-85
2022/07/19 00:10:06;;;;;;;4.27;3.30;;;26.40;55.50;;;;;;4997387;28;20574;-85
2022/07/19 00:12:34;;;;;;;3.33;3.03;;;26.60;55.60;;;;;;4997541;28;20965;-86
2022/07/19 00:15:01;;;;;;;4.07;2.60;;;26.50;54.40;;;;;;4990105;28;20452;-85
2022/07/19 00:17:28;;;;;;;3.53;3.23;;;26.40;54.10;;;;;;4998294;28;20451;-85
2022/07/19 00:19:54;;;;;;;3.77;3.40;;;26.40;54.30;;;;;;4986224;28;20487;-84
2022/07/19 00:22:21;;;;;;;3.70;3.37;;;26.30;55.00;;;;;;4980086;28;20488;-84
2022/07/19 00:24:48;;;;;;;3.00;2.80;;;26.30;55.60;;;;;;4972489;28;20774;-86
2022/07/19 00:27:14;;;;;;;3.23;2.93;;;26.30;55.40;;;;;;4997521;28;20485;-85
2022/07/19 00:29:41;;;;;;;4.90;2.90;;;26.40;55.10;;;;;;4993504;28;20980;-84
2022/07/19 00:32:08;;;;;;;4.80;3.50;;;26.50;53.20;;;;;;4981442;28;20473;-84
2022/07/19 00:34:34;;;;;;;2.90;2.60;;;26.40;52.80;;;;;;5003429;28;20446;-84
2022/07/19 00:37:01;;;;;;;4.00;3.00;;;26.30;52.50;;;;;;4998033;28;20454;-85
2022/07/19 00:39:27;;;;;;;3.83;2.47;;;26.10;52.70;;;;;;4973677;28;20490;-84
2022/07/19 00:41:54;;;;;;;2.70;2.50;;;26.00;53.50;;;;;;4972828;28;20472;-85
2022/07/19 00:44:21;;;;;;;4.50;3.10;;;25.90;53.70;;;;;;4997727;28;20530;-83
2022/07/19 00:46:49;;;;;;;3.60;3.30;;;25.80;53.90;;;;;;5003631;28;20491;-84
2022/07/19 00:49:17;;;;;;;4.00;3.10;;;25.80;54.30;;;;;;4998230;28;20477;-84
2022/07/19 00:51:45;;;;;;;3.27;3.00;;;26.00;54.30;;;;;;4994707;28;20869;-83
2022/07/19 00:54:13;;;;;;;4.10;3.17;;;26.10;53.50;;;;;;4990802;28;20451;-85
2022/07/19 00:56:42;;;;;;;4.93;3.50;;;25.90;53.60;;;;;;4988501;28;20501;-84
2022/07/19 00:59:16;;;;;;;8.90;3.90;;;25.80;54.00;;;;;;4997102;28;20829;-86
2022/07/19 01:02:06;;;;;;;4.10;2.80;;;25.80;55.20;;;;;;5005249;28;20467;-88
2022/07/19 01:04:33;;;;;;;4.50;2.90;;;25.90;54.70;;;;;;4993531;28;20470;-83
2022/07/19 01:07:00;;;;;;;3.70;3.00;;;25.80;54.60;;;;;;4996657;28;20563;-87
2022/07/19 01:09:29;;;;;;;3.40;3.10;;;25.70;54.60;;;;;;4994130;28;20547;-83
2022/07/19 01:11:57;;;;;;;4.47;2.70;;;25.70;55.00;;;;;;4978987;28;20467;-85
2022/07/19 01:14:24;;;;;;;7.20;3.03;;;25.70;55.30;;;;;;5000171;28;20448;-83
2022/07/19 01:16:51;;;;;;;3.60;2.93;;;25.70;55.20;;;;;;4984016;28;20459;-85
2022/07/19 01:19:18;;;;;;;3.23;3.03;;;25.80;54.80;;;;;;4981222;28;20560;-84
2022/07/19 01:21:45;;;;;;;5.00;3.10;;;25.80;54.80;;;;;;4976338;28;20451;-85
2022/07/19 01:24:12;;;;;;;3.20;3.00;;;25.70;54.90;;;;;;4982809;28;20462;-86
2022/07/19 01:26:40;;;;;;;3.43;3.13;;;25.70;55.00;;;;;;4983717;28;20471;-84
2022/07/19 01:29:07;;;;;;;3.83;2.67;;;25.70;54.80;;;;;;4996941;28;20480;-85
2022/07/19 01:31:39;;;;;;;4.43;3.10;;;25.60;55.10;;;;;;4983953;28;20505;-88
2022/07/19 01:34:06;;;;;;;4.33;2.90;;;25.50;55.00;;;;;;4989056;28;20953;-85
2022/07/19 01:36:33;;;;;;;3.20;2.97;;;25.50;55.10;;;;;;4996465;28;20455;-85
2022/07/19 01:38:59;;;;;;;4.07;2.87;;;25.50;55.20;;;;;;5006807;28;20491;-85
2022/07/19 01:41:28;;;;;;;4.50;2.60;;;25.50;55.70;;;;;;5003474;28;20480;-85
2022/07/19 01:43:55;;;;;;;3.60;2.97;;;25.70;56.10;;;;;;4994502;28;20467;-85
2022/07/19 01:46:22;;;;;;;3.00;2.80;;;25.60;56.70;;;;;;5009287;28;20449;-85
2022/07/19 01:48:54;;;;;;;4.07;2.70;;;25.60;55.80;;;;;;4998088;28;20913;-84
2022/07/19 01:51:23;;;;;;;5.00;2.77;;;25.40;55.60;;;;;;4999378;28;20442;-85
2022/07/19 01:53:50;;;;;;;3.37;3.10;;;25.20;55.80;;;;;;4997435;28;20820;-85
2022/07/19 01:56:22;;;;;;;4.13;2.63;;;25.00;56.30;;;;;;4992251;28;20452;-86
2022/07/19 01:58:52;;;;;;;3.40;3.10;;;24.80;56.40;;;;;;4999311;28;20505;-86
2022/07/19 02:01:27;;;;;;;2.70;2.50;;;24.50;56.10;;;;;;4993747;28;20487;-84
2022/07/19 02:04:00;;;;;;;3.10;2.60;;;24.30;56.50;;;;;;4978313;28;20489;-83
2022/07/19 02:06:27;;;;;;;4.37;2.80;;;24.20;57.20;;;;;;4989418;28;20456;-84
2022/07/19 02:08:57;;;;;;;3.07;2.60;;;24.10;56.90;;;;;;4993682;28;20559;-84
2022/07/19 02:11:35;;;;;;;5.97;2.80;;;24.20;56.80;;;;;;4979693;28;20460;-86
2022/07/19 02:14:09;;;;;;;3.20;2.60;;;24.20;55.90;;;;;;4992720;28;20468;-86
2022/07/19 02:16:37;;;;;;;3.10;2.80;;;24.10;55.70;;;;;;4995273;28;20447;-85
2022/07/19 02:19:14;;;;;;;3.10;2.80;;;24.00;56.00;;;;;;4993971;28;20480;-86
2022/07/19 02:21:41;;;;;;;4.37;2.90;;;24.00;56.00;;;;;;4994586;28;20492;-85
2022/07/19 02:24:31;;;;;;;2.63;2.43;;;24.00;56.70;;;;;;4996630;28;20521;-86
2022/07/19 02:26:58;;;;;;;3.27;2.97;;;23.80;56.40;;;;;;4981630;28;20471;-85
2022/07/19 02:29:28;;;;;;;5.10;3.10;;;23.70;56.80;;;;;;4989449;28;20486;-85
2022/07/19 02:34:45;;;;;;;2.80;2.60;;;23.50;57.10;;;;;;4992169;28;20456;-86
2022/07/19 02:37:12;;;;;;;3.00;2.80;;;23.40;57.50;;;;;;4995816;28;20474;-84
2022/07/19 02:39:56;;;;;;;3.17;2.87;;;23.40;57.50;;;;;;4981385;28;20551;-85
2022/07/19 02:42:22;;;;;;;3.97;3.00;;;23.40;57.40;;;;;;4973982;28;20470;-86
2022/07/19 02:44:49;;;;;;;2.97;2.60;;;23.40;57.40;;;;;;5009799;28;20447;-86
2022/07/19 02:47:16;;;;;;;4.50;3.10;;;23.50;57.50;;;;;;5005826;28;20491;-86
2022/07/19 02:49:42;;;;;;;2.70;2.50;;;23.40;57.60;;;;;;5006128;28;20466;-87
2022/07/19 02:52:09;;;;;;;3.33;2.87;;;23.40;57.70;;;;;;5007360;28;20470;-84
2022/07/19 02:54:44;;;;;;;3.37;3.07;;;23.50;57.50;;;;;;4999781;28;20567;-87
2022/07/19 02:57:10;;;;;;;3.17;2.87;;;23.60;57.30;;;;;;5007154;28;20446;-83
2022/07/19 02:59:57;;;;;;;3.10;2.90;;;23.50;57.40;;;;;;5010083;28;20467;-88
2022/07/19 03:02:24;;;;;;;2.93;2.73;;;23.50;57.20;;;;;;4988163;28;20548;-84
2022/07/19 03:04:51;;;;;;;2.70;2.50;;;23.60;56.90;;;;;;4987706;28;20480;-84
2022/07/19 03:07:18;;;;;;;3.47;2.57;;;23.60;56.90;;;;;;4999084;28;20565;-85
2022/07/19 03:09:45;;;;;;;5.50;2.80;;;23.40;57.50;;;;;;4995916;28;20483;-83
2022/07/19 03:12:12;;;;;;;3.30;2.83;;;23.40;57.50;;;;;;4995172;28;20463;-84
2022/07/19 03:14:39;;;;;;;3.40;3.10;;;23.50;56.80;;;;;;4997647;28;20450;-85
2022/07/19 03:17:11;;;;;;;2.87;2.57;;;23.40;56.90;;;;;;4993772;28;20515;-86
2022/07/19 03:19:41;;;;;;;2.93;2.63;;;23.40;57.30;;;;;;4992990;28;20483;-84
2022/07/19 03:22:08;;;;;;;3.27;2.30;;;23.30;57.30;;;;;;4991031;28;20452;-84
2022/07/19 03:24:35;;;;;;;2.80;2.60;;;23.40;56.80;;;;;;4990532;28;20552;-84
2022/07/19 03:27:04;;;;;;;4.10;2.30;;;23.30;56.70;;;;;;4986163;28;20455;-83
2022/07/19 03:29:38;;;;;;;5.33;2.50;;;23.40;56.80;;;;;;4990961;28;20478;-83
2022/07/19 03:32:05;;;;;;;2.83;2.60;;;23.30;56.50;;;;;;4989869;28;20534;-84
2022/07/19 03:34:32;;;;;;;3.37;2.83;;;23.30;56.60;;;;;;4984075;28;20950;-84
2022/07/19 03:36:58;;;;;;;3.03;2.73;;;23.30;56.80;;;;;;4990133;28;20461;-84
2022/07/19 03:39:25;;;;;;;2.87;2.57;;;23.50;57.30;;;;;;4983582;28;20492;-86
2022/07/19 03:41:52;;;;;;;3.43;3.13;;;23.60;56.80;;;;;;5000631;28;20464;-84
2022/07/19 03:44:25;;;;;;;4.37;3.00;;;23.60;57.00;;;;;;4981601;28;20455;-82
2022/07/19 03:46:52;;;;;;;4.00;2.83;;;23.50;57.30;;;;;;4974955;28;20455;-84
2022/07/19 03:49:18;;;;;;;4.17;3.10;;;23.40;58.00;;;;;;4986179;28;21009;-84
2022/07/19 03:51:45;;;;;;;3.80;2.93;;;23.30;58.00;;;;;;4974350;28;20448;-85
2022/07/19 03:54:12;;;;;;;5.57;3.20;;;23.10;58.10;;;;;;4991949;28;20491;-85
2022/07/19 03:56:39;;;;;;;2.57;2.37;;;23.10;58.40;;;;;;4976468;28;20456;-85
2022/07/19 03:59:06;;;;;;;6.90;2.87;;;23.00;58.80;;;;;;4988058;28;20482;-84
2022/07/19 04:01:33;;;;;;;5.07;3.30;;;22.80;59.40;;;;;;4995079;28;20465;-84
2022/07/19 04:04:00;;;;;;;4.83;2.70;;;22.80;60.20;;;;;;4975835;28;20506;-83
2022/07/19 04:06:26;;;;;;;3.27;2.97;;;22.90;59.50;;;;;;4997974;28;20472;-86
2022/07/19 04:08:53;;;;;;;3.67;3.00;;;23.00;59.00;;;;;;4978769;28;20482;-84
2022/07/19 04:11:20;;;;;;;2.80;2.60;;;23.00;59.20;;;;;;4977329;28;20460;-85
2022/07/19 04:13:47;;;;;;;3.03;2.83;;;22.90;59.00;;;;;;4994415;28;20455;-84
2022/07/19 04:16:17;;;;;;;6.80;3.10;;;22.90;59.20;;;;;;4988244;28;20464;-84
2022/07/19 04:18:47;;;;;;;3.50;3.00;;;22.90;58.90;;;;;;4985693;28;20493;-85
2022/07/19 04:21:27;;;;;;;2.47;2.27;;;23.00;59.40;;;;;;4995616;28;20490;-84
2022/07/19 04:23:59;;;;;;;3.30;3.00;;;23.20;58.60;;;;;;4975331;28;20464;-84
2022/07/19 04:26:50;;;;;;;3.40;3.10;;;23.20;58.10;;;;;;4980615;28;20477;-84
2022/07/19 04:29:16;;;;;;;4.07;2.90;;;23.10;58.30;;;;;;4968612;28;20552;-86
2022/07/19 04:31:43;;;;;;;3.20;2.50;;;23.00;58.80;;;;;;4977195;28;20486;-85
2022/07/19 04:34:12;;;;;;;3.17;2.87;;;23.00;58.60;;;;;;4980420;28;20463;-85
2022/07/19 04:36:39;;;;;;;3.60;3.20;;;22.90;58.80;;;;;;4986041;28;20444;-86
2022/07/19 04:42:18;;;;;;;2.97;2.77;;;22.90;58.40;;;;;;4991776;28;20470;-85
2022/07/19 04:44:47;;;;;;;4.03;2.97;;;22.80;59.20;;;;;;4993080;28;20455;-86
2022/07/19 04:47:14;;;;;;;2.53;2.30;;;22.70;59.70;;;;;;4975264;28;20925;-83
2022/07/19 04:49:44;;;;;;;3.07;2.77;;;22.80;59.00;;;;;;4991625;28;20555;-86
2022/07/19 04:52:11;;;;;;;3.43;2.60;;;22.80;58.70;;;;;;4991090;28;20455;-85
2022/07/19 04:54:38;;;;;;;2.90;2.70;;;22.70;58.80;;;;;;4989656;28;20462;-84
2022/07/19 04:57:05;;;;;;;3.70;2.93;;;22.70;59.40;;;;;;4983081;28;20528;-87
2022/07/19 04:59:32;;;;;;;3.10;2.57;;;22.70;59.30;;;;;;4992329;28;20471;-87
2022/07/19 05:01:59;;;;;;;5.33;2.80;;;22.60;59.60;;;;;;4979274;28;20554;-85
2022/07/19 05:04:43;;;;;;;4.30;3.50;;;22.70;60.40;;;;;;4975514;28;20490;-85
2022/07/19 05:07:18;;;;;;;4.57;2.70;;;22.80;61.30;;;;;;4992165;28;20481;-86
2022/07/19 05:09:45;;;;;;;3.83;3.03;;;22.90;59.90;;;;;;4989075;28;21001;-87
2022/07/19 05:12:11;;;;;;;4.30;2.90;;;23.00;59.70;;;;;;4995024;28;20803;-85
2022/07/19 05:14:41;;;;;;;3.93;2.90;;;23.10;59.60;;;;;;4995668;28;20445;-84
2022/07/19 05:17:11;;;;;;;2.90;2.60;;;23.20;59.00;;;;;;4993249;28;20467;-85
2022/07/19 05:19:38;;;;;;;3.90;2.80;;;23.20;58.80;;;;;;4972729;28;20546;-85
2022/07/19 05:22:06;;;;;;;5.63;3.40;;;23.20;58.30;;;;;;4970948;28;20513;-85
2022/07/19 05:24:33;;;;;;;3.77;2.90;;;23.30;58.30;;;;;;4982388;28;20479;-85
2022/07/19 05:27:02;;;;;;;3.20;2.77;;;23.50;56.80;;;;;;4982501;28;20466;-85
2022/07/19 05:29:31;;;;;;;4.57;2.97;;;23.50;56.10;;;;;;4999045;28;20494;-86
2022/07/19 05:32:04;;;;;;;3.33;3.07;;;23.50;55.80;;;;;;4996412;28;20462;-87
2022/07/19 05:34:34;;;;;;;5.30;2.97;;;23.50;55.80;;;;;;4990680;28;20455;-85
2022/07/19 05:37:01;;;;;;;4.50;3.00;;;23.50;56.00;;;;;;4982889;28;20463;-85
2022/07/19 05:39:28;;;;;;;3.10;2.80;;;23.40;56.60;;;;;;4980609;28;21012;-84
2022/07/19 05:41:57;;;;;;;5.47;3.23;;;23.30;56.40;;;;;;4993220;28;20465;-83
2022/07/19 05:44:24;;;;;;;3.57;2.87;;;23.30;56.70;;;;;;4982124;28;20550;-84
2022/07/19 05:46:50;;;;;;;7.87;2.87;;;23.40;55.90;;;;;;4991497;28;20483;-85
2022/07/19 05:49:17;;;;;;;8.47;3.00;;;23.50;56.10;;;;;;4991482;28;20516;-85
2022/07/19 05:51:49;;;;;;;6.50;2.60;;;23.50;56.20;;;;;;4986540;28;20471;-85
2022/07/19 05:54:19;;;;;;;6.03;2.90;;;23.70;55.30;;;;;;4994746;28;20550;-83
2022/07/19 05:56:46;;;;;;;6.70;2.87;;;23.80;55.40;;;;;;4992505;28;20458;-84
2022/07/19 05:59:16;;;;;;;5.10;2.50;;;23.70;55.10;;;;;;4993878;28;20486;-84
2022/07/19 06:01:43;;;;;;;3.80;2.57;;;23.80;54.70;;;;;;4981011;28;20765;-85
2022/07/19 06:04:12;;;;;;;5.03;4.20;;;23.90;54.60;;;;;;5000583;28;20494;-84
2022/07/19 06:06:59;;;;;;;;;;;;;;;;;;;;;
2022/07/19 06:09:28;;;;;;;4.77;3.00;;;23.90;54.50;;;;;;4996092;28;20484;-85
2022/07/19 06:11:57;;;;;;;8.80;3.30;;;24.00;54.40;;;;;;4988669;28;20487;-84
2022/07/19 06:14:24;;;;;;;4.93;4.10;;;24.20;54.30;;;;;;4991114;28;20467;-85
2022/07/19 06:16:53;;;;;;;4.50;2.90;;;24.10;54.40;;;;;;4993175;28;20631;-84
2022/07/19 06:19:20;;;;;;;3.60;2.80;;;24.20;54.20;;;;;;4984649;28;20458;-86
2022/07/19 06:21:47;;;;;;;6.23;2.80;;;24.30;53.90;;;;;;4995598;28;20475;-86
2022/07/19 06:24:22;;;;;;;8.20;3.50;;;24.40;53.80;;;;;;5018686;28;20459;-85
2022/07/19 06:26:49;;;;;;;3.60;2.80;;;24.50;53.80;;;;;;5014402;28;20447;-84
2022/07/19 06:29:16;;;;;;;3.80;3.37;;;24.50;53.50;;;;;;5010197;28;20497;-86
2022/07/19 06:31:43;;;;;;;3.00;2.77;;;24.60;53.30;;;;;;4989474;28;20475;-84
2022/07/19 06:34:16;;;;;;;3.60;3.13;;;24.60;53.40;;;;;;4977598;28;20546;-81
2022/07/19 06:36:45;;;;;;;3.70;3.30;;;24.60;53.30;;;;;;4975949;28;20460;-83
2022/07/19 06:39:13;;;;;;;5.20;2.80;;;24.90;53.10;;;;;;4998023;28;20547;-84
2022/07/19 06:41:40;;;;;;;3.80;2.90;;;25.00;52.90;;;;;;4977448;28;20473;-85
2022/07/19 06:44:10;;;;;;;3.07;2.87;;;24.90;52.90;;;;;;5005997;28;20940;-84
2022/07/19 06:46:51;;;;;;;3.20;2.77;;;25.10;53.00;;;;;;5000804;28;20459;-85
2022/07/19 06:49:50;;;;;;;5.30;3.30;;;25.20;52.70;;;;;;5000654;28;20486;-86
2022/07/19 06:52:34;;;;;;;5.93;3.30;;;25.20;53.00;;;;;;4996285;28;20448;-85
2022/07/19 06:55:06;;;;;;;5.80;2.50;;;25.30;52.50;;;;;;5004815;28;20443;-84
2022/07/19 06:57:33;;;;;;;3.10;2.73;;;25.50;52.00;;;;;;5010738;28;20447;-87
2022/07/19 06:59:59;;;;;;;5.10;3.63;;;25.50;52.00;;;;;;5009211;28;20469;-87
2022/07/19 07:02:35;;;;;;;7.93;3.07;;;25.70;51.80;;;;;;5010366;28;20466;-89
2022/07/19 07:05:03;;;;;;;4.17;3.30;;;25.70;52.10;;;;;;5013966;28;20482;-88
2022/07/19 07:07:30;;;;;;;5.30;3.00;;;25.70;51.80;;;;;;5013130;28;20459;-86
2022/07/19 07:10:02;;;;;;;3.00;2.80;;;25.80;51.50;;;;;;5013634;28;20476;-85
2022/07/19 07:12:35;;;;;;;8.10;3.00;;;25.90;51.30;;;;;;5009783;28;20467;-88
2022/07/19 07:15:04;;;;;;;3.90;3.13;;;25.90;51.30;;;;;;5006735;28;20443;-86
2022/07/19 07:17:30;;;;;;;4.20;2.70;;;26.30;51.00;;;;;;5004500;28;20494;-84
2022/07/19 07:19:57;;;;;;;4.10;2.80;;;26.20;50.60;;;;;;5000614;28;20487;-85
2022/07/19 07:22:24;;;;;;;4.67;2.60;;;26.60;50.00;;;;;;4994018;28;20467;-84
2022/07/19 07:24:59;;;;;;;6.87;3.23;;;26.40;50.10;;;;;;4994763;28;20959;-84
2022/07/19 07:27:26;;;;;;;3.83;2.90;;;26.60;50.10;;;;;;4978418;28;20448;-84
2022/07/19 07:29:53;;;;;;;3.70;2.63;;;26.70;50.20;;;;;;4992624;28;20976;-83
2022/07/19 07:32:19;;;;;;;4.47;2.73;;;26.70;50.20;;;;;;4998611;28;20836;-85
2022/07/19 07:34:46;;;;;;;5.10;3.60;;;27.00;50.10;;;;;;4979674;28;20451;-83
2022/07/19 07:37:13;;;;;;;3.83;2.93;;;27.20;49.90;;;;;;4970550;28;20460;-83
2022/07/19 07:39:40;;;;;;;3.60;2.80;;;27.50;48.50;;;;;;4972979;28;20482;-85
2022/07/19 07:42:06;;;;;;;6.60;2.70;;;27.60;48.30;;;;;;4981813;28;20464;-83
2022/07/19 07:44:39;;;;;;;3.57;2.63;;;27.60;48.20;;;;;;4991681;28;20459;-83
2022/07/19 07:47:08;;;;;;;4.70;3.00;;;27.40;48.60;;;;;;5003968;28;20467;-84
2022/07/19 07:49:39;;;;;;;3.03;2.80;;;27.60;47.80;;;;;;4991000;28;20490;-85
2022/07/19 07:52:44;;;;;;;6.63;3.20;;;27.40;48.00;;;;;;4985827;28;20470;-85
2022/07/19 07:56:18;;;;;;;3.83;2.83;;;27.40;48.40;;;;;;4973853;28;20461;-83
2022/07/19 07:58:49;;;;;;;4.13;3.07;;;27.90;47.30;;;;;;4940045;29;20470;-85
2022/07/19 08:01:18;;;;;;;4.73;3.80;;;28.50;46.10;;;;;;4964175;29;20461;-85
2022/07/19 08:03:53;;;;;;;4.50;2.50;;;28.90;45.00;;;;;;4956943;29;20461;-85
2022/07/19 08:06:20;;;;;;;3.80;2.77;;;28.80;44.70;;;;;;4952965;29;20492;-84
2022/07/19 08:08:53;;;;;;;5.20;3.03;;;29.20;44.40;;;;;;4953919;29;20516;-83
2022/07/19 08:11:22;;;;;;;5.10;2.73;;;29.50;43.80;;;;;;4959577;29;21073;-85
2022/07/19 08:13:52;;;;;;;2.60;2.40;;;29.40;43.60;;;;;;4964360;28;20438;-87
2022/07/19 08:16:25;;;;;;;5.70;2.90;;;29.60;43.60;;;;;;4948137;29;20477;-83
2022/07/19 08:19:00;;;;;;;3.47;3.17;;;29.50;43.40;;;;;;4952997;28;20596;-83
2022/07/19 08:21:27;;;;;;;6.17;2.90;;;30.20;42.40;;;;;;4944865;28;20959;-84
2022/07/19 08:23:54;;;;;;;3.77;2.90;;;30.80;41.50;;;;;;4952547;29;20461;-85
2022/07/19 08:26:21;;;;;;;3.07;2.60;;;31.10;40.80;;;;;;4943556;29;20458;-85
2022/07/19 08:28:48;;;;;;;5.20;2.80;;;31.20;40.70;;;;;;4940992;29;21208;-84
2022/07/19 08:31:42;;;;;;;3.57;2.80;;;31.80;39.90;;;;;;4960746;29;20441;-84
2022/07/19 08:34:29;;;;;;;2.90;2.70;;;31.90;39.30;;;;;;4962857;28;20530;-84
2022/07/19 08:36:57;;;;;;;6.23;2.77;;;32.60;38.20;;;;;;4980322;28;20815;-84
2022/07/19 08:39:42;;;;;;;5.17;2.73;;;32.70;37.50;;;;;;5001381;28;21020;-85
2022/07/19 08:46:09;;;;;;;3.97;2.70;;;33.50;37.10;;;;;;4971760;28;20435;-84
2022/07/19 08:48:37;;;;;;;7.60;3.80;;;34.20;36.00;;;;;;4991681;28;20491;-85
2022/07/19 08:54:10;;;;;;;4.40;2.90;;;34.60;35.20;;;;;;4972437;28;20454;-83
2022/07/19 08:59:23;;;;;;;4.10;2.50;;;35.90;33.30;;;;;;5000439;28;20479;-84
2022/07/19 09:01:50;;;;;;;3.10;2.70;;;37.10;31.70;;;;;;5008873;28;20454;-84
2022/07/19 09:04:24;;;;;;;2.73;2.50;;;38.20;30.20;;;;;;4998727;28;20534;-84
2022/07/19 09:06:53;;;;;;;6.80;3.17;;;38.90;29.20;;;;;;4993710;28;20457;-85
2022/07/19 09:09:26;;;;;;;4.00;2.77;;;38.60;28.90;;;;;;5003059;28;20479;-84
2022/07/19 09:15:24;;;;;;;7.87;2.60;;;39.20;28.20;;;;;;5001852;28;20456;-84
2022/07/19 09:18:24;;;;;;;4.63;2.90;;;40.10;27.50;;;;;;4999925;28;20446;-84
2022/07/19 09:21:49;;;;;;;;;;;;;;;;;;;;;
2022/07/19 09:24:42;;;;;;;3.20;2.87;;;40.70;26.50;;;;;;4999007;28;20489;-85
2022/07/19 09:27:17;;;;;;;3.33;2.70;;;40.50;26.30;;;;;;4993325;28;20516;-86
2022/07/19 09:29:51;;;;;;;3.43;2.77;;;39.60;27.20;;;;;;5005219;28;20476;-85
2022/07/19 09:32:20;;;;;;;4.73;2.80;;;39.70;27.10;;;;;;4994298;28;20449;-86
2022/07/19 09:34:57;;;;;;;6.03;2.70;;;40.10;26.90;;;;;;5006277;28;20459;-85
2022/07/19 09:37:27;;;;;;;4.37;2.40;;;39.90;26.90;;;;;;5012239;28;20478;-87
2022/07/19 09:39:55;;;;;;;3.10;2.27;;;39.30;26.70;;;;;;5004997;28;20479;-87
2022/07/19 09:42:34;;;;;;;3.63;2.40;;;38.80;27.30;;;;;;5007789;28;20466;-87
2022/07/19 09:45:04;;;;;;;4.07;2.70;;;39.50;26.80;;;;;;4999403;28;20528;-86
2022/07/19 09:47:37;;;;;;;3.63;2.30;;;40.90;26.00;;;;;;4988262;28;20458;-88
2022/07/19 09:50:08;;;;;;;6.00;2.50;;;41.10;25.90;;;;;;4993963;28;20466;-89
2022/07/19 09:52:35;;;;;;;2.20;2.07;;;42.00;24.40;;;;;;5001673;28;20446;-87
2022/07/19 09:55:08;;;;;;;5.07;2.53;;;41.60;24.30;;;;;;5018402;28;20454;-88
2022/07/19 09:57:38;;;;;;;3.23;2.37;;;40.90;25.00;;;;;;4994753;28;20515;-86
2022/07/19 10:00:08;;;;;;;4.93;2.30;;;40.80;24.60;;;;;;5012925;28;20491;-88
2022/07/19 10:02:40;;;;;;;5.70;2.13;;;40.60;24.10;;;;;;5017428;28;20443;-84
2022/07/19 10:05:09;;;;;;;4.00;2.00;;;40.70;23.70;;;;;;5006222;28;20510;-84
2022/07/19 10:07:36;;;;;;;2.63;2.43;;;41.10;24.00;;;;;;4982062;28;20655;-83
2022/07/19 10:10:12;;;;;;;2.70;1.80;;;41.20;24.00;;;;;;5000918;28;20490;-87
2022/07/19 10:12:41;;;;;;;3.47;1.83;;;41.30;22.60;;;;;;4977731;28;20467;-87
2022/07/19 10:15:10;;;;;;;3.83;2.37;;;41.40;21.80;;;;;;4986885;28;20446;-88
2022/07/19 10:17:41;;;;;;;2.50;2.30;;;41.10;21.50;;;;;;5000616;28;20450;-85
2022/07/19 10:20:10;;;;;;;6.43;2.30;;;41.00;21.50;;;;;;4990384;28;20478;-87
2022/07/19 10:22:40;;;;;;;3.63;2.20;;;41.00;21.30;;;;;;5003743;28;20454;-85
2022/07/19 10:25:15;;;;;;;5.73;2.37;;;40.40;21.80;;;;;;4983360;28;20475;-85
2022/07/19 10:27:47;;;;;;;3.10;2.50;;;39.90;22.00;;;;;;4983493;28;20511;-84
2022/07/19 10:30:14;;;;;;;2.70;2.20;;;39.50;22.20;;;;;;4994667;28;20483;-84
2022/07/19 10:32:46;;;;;;;6.23;2.37;;;39.80;21.90;;;;;;4986215;28;20450;-85
2022/07/19 10:35:16;;;;;;;3.27;2.30;;;40.30;21.70;;;;;;4992390;28;20466;-87
2022/07/19 10:37:44;;;;;;;3.70;2.60;;;40.60;21.50;;;;;;4995084;28;20457;-87
2022/07/19 10:40:11;;;;;;;2.63;2.10;;;40.80;21.60;;;;;;5011363;28;20489;-86
2022/07/19 10:43:08;;;;;;;3.33;2.00;;;40.10;21.90;;;;;;5004307;28;20442;-87
2022/07/19 10:45:40;;;;;;;2.83;2.37;;;40.30;22.30;;;;;;5001695;28;20441;-85
2022/07/19 10:48:18;;;;;;;2.27;1.80;;;40.30;22.20;;;;;;5006501;28;20526;-84
2022/07/19 10:50:51;;;;;;;3.17;2.07;;;40.40;22.20;;;;;;5000962;28;20462;-87
2022/07/19 10:53:40;;;;;;;3.30;2.10;;;40.40;21.90;;;;;;4989494;28;20446;-85
2022/07/19 10:56:24;;;;;;;3.40;2.30;;;40.50;22.10;;;;;;4989379;28;20459;-87
2022/07/19 10:59:10;;;;;;;4.20;1.93;;;40.70;22.20;;;;;;4984327;28;20838;-86
2022/07/19 11:01:55;;;;;;;2.20;2.00;;;40.50;22.30;;;;;;5004354;28;20454;-86
2022/07/19 11:04:23;;;;;;;4.40;2.00;;;39.80;22.70;;;;;;4984635;28;20789;-88
2022/07/19 11:07:08;;;;;;;2.60;2.40;;;40.50;22.10;;;;;;4998166;28;20898;-86
2022/07/19 11:09:46;;;;;;;4.30;2.20;;;40.70;22.30;;;;;;4997247;28;20504;-87
2022/07/19 11:12:34;;;;;;;3.37;2.30;;;41.00;22.50;;;;;;5003557;28;20511;-86
2022/07/19 11:15:04;;;;;;;2.40;2.20;;;40.80;22.50;;;;;;5002366;28;20481;-86
2022/07/19 11:18:00;;;;;;;2.90;1.90;;;40.00;23.10;;;;;;5000813;28;20552;-85
2022/07/19 11:20:32;;;;;;;2.63;2.33;;;40.60;22.40;;;;;;5002017;28;20652;-85
2022/07/19 11:23:00;;;;;;;5.10;2.10;;;40.90;22.60;;;;;;5000634;28;20447;-88
2022/07/19 11:25:28;;;;;;;3.50;2.40;;;41.30;22.30;;;;;;4999336;28;20474;-86
2022/07/19 11:27:56;;;;;;;1.97;1.80;;;41.10;21.90;;;;;;4979314;28;20457;-85
2022/07/19 11:30:25;;;;;;;2.40;2.20;;;40.60;21.60;;;;;;4979190;28;20493;-86
2022/07/19 11:32:57;;;;;;;2.97;2.10;;;40.00;21.50;;;;;;5001390;28;20447;-85
2022/07/19 11:35:24;;;;;;;4.13;1.90;;;39.70;21.90;;;;;;4989951;28;20462;-88
2022/07/19 11:37:54;;;;;;;2.83;2.40;;;40.20;21.60;;;;;;4993424;28;20523;-88
2022/07/19 11:40:22;;;;;;;2.83;2.30;;;39.70;22.10;;;;;;5002746;28;20483;-85
2022/07/19 11:42:50;;;;;;;5.17;2.63;;;40.00;22.10;;;;;;5005695;28;20454;-86
2022/07/19 11:45:42;;;;;;;4.17;1.90;;;40.00;21.70;;;;;;4996160;28;20468;-87
2022/07/19 11:48:09;;;;;;;2.50;2.30;;;40.00;21.80;;;;;;5002968;28;20466;-87
2022/07/19 11:50:36;;;;;;;3.17;2.87;;;40.40;21.40;;;;;;4987081;28;20490;-86
2022/07/19 11:53:02;;;;;;;3.00;2.80;;;40.40;21.30;;;;;;5001766;28;20519;-86
2022/07/19 11:55:39;;;;;;;4.63;2.50;;;40.50;21.00;;;;;;5001051;28;20467;-84
2022/07/19 11:58:07;;;;;;;2.53;2.33;;;40.40;20.80;;;;;;4992704;28;20471;-86
2022/07/19 12:00:35;;;;;;;2.00;1.90;;;40.00;21.00;;;;;;4999199;28;20479;-87
2022/07/19 12:03:04;;;;;;;3.17;2.20;;;40.50;21.10;;;;;;4995349;28;20451;-87
2022/07/19 12:05:33;;;;;;;4.30;2.90;;;40.90;20.60;;;;;;4993523;28;20450;-87
2022/07/19 12:08:03;;;;;;;4.97;2.30;;;40.30;20.80;;;;;;4989037;28;20479;-86
2022/07/19 12:10:45;;;;;;;3.50;2.33;;;39.60;20.90;;;;;;5001370;28;20491;-87
2022/07/19 12:13:28;;;;;;;5.53;2.67;;;39.90;20.70;;;;;;4991823;28;20451;-86
2022/07/19 12:15:56;;;;;;;2.50;2.30;;;40.00;21.00;;;;;;4978163;28;20466;-85
2022/07/19 12:18:41;;;;;;;3.63;2.80;;;39.90;21.10;;;;;;4995995;28;20445;-85
2022/07/19 12:21:44;;;;;;;2.77;2.50;;;40.00;21.10;;;;;;4995716;28;20462;-86
2022/07/19 12:24:24;;;;;;;2.80;2.60;;;39.90;21.40;;;;;;4996499;28;20457;-85
2022/07/19 12:27:04;;;;;;;3.57;2.30;;;39.60;21.70;;;;;;4990820;28;20449;-87
2022/07/19 12:29:43;;;;;;;3.03;2.40;;;39.30;21.70;;;;;;4999186;28;20470;-87
2022/07/19 12:32:12;;;;;;;3.87;2.20;;;39.80;21.50;;;;;;5006734;28;20478;-85
2022/07/19 12:34:44;;;;;;;3.67;2.37;;;40.20;21.30;;;;;;5001140;28;20514;-86
2022/07/19 12:37:18;;;;;;;4.47;2.00;;;40.20;21.60;;;;;;5006120;28;20458;-83
2022/07/19 12:39:57;;;;;;;2.37;2.17;;;39.80;22.20;;;;;;5007504;28;20466;-86
2022/07/19 12:42:24;;;;;;;2.40;2.20;;;40.00;22.00;;;;;;4992464;28;20451;-87
2022/07/19 12:44:51;;;;;;;2.33;2.13;;;39.70;22.10;;;;;;4996846;28;20454;-89
2022/07/19 12:47:17;;;;;;;2.67;2.43;;;40.40;21.80;;;;;;4993347;28;20964;-86
2022/07/19 12:50:03;;;;;;;4.90;2.70;;;40.50;21.80;;;;;;4980589;28;20494;-86
2022/07/19 12:52:36;;;;;;;4.33;2.70;;;40.10;22.20;;;;;;5002609;28;20525;-86
2022/07/19 12:55:03;;;;;;;3.03;2.50;;;40.40;22.10;;;;;;4998499;28;20453;-86
2022/07/19 12:57:33;;;;;;;2.60;2.40;;;40.60;22.10;;;;;;4988953;28;20431;-87
2022/07/19 13:00:00;;;;;;;4.47;2.47;;;40.90;21.70;;;;;;4989787;28;20534;-86
2022/07/19 13:02:26;;;;;;;2.80;2.57;;;40.80;21.80;;;;;;5003662;28;20451;-86
2022/07/19 13:04:53;;;;;;;2.83;2.60;;;40.90;21.40;;;;;;5001180;28;20492;-85
2022/07/19 13:07:20;;;;;;;4.00;2.70;;;40.60;20.60;;;;;;4994104;28;20458;-85
2022/07/19 13:09:47;;;;;;;2.40;2.20;;;40.20;20.30;;;;;;4998428;28;21019;-86
2022/07/19 13:12:14;;;;;;;4.37;2.57;;;40.40;20.30;;;;;;4997551;28;20821;-87
2022/07/19 13:14:40;;;;;;;3.17;2.87;;;40.30;20.20;;;;;;4997745;28;20455;-87
2022/07/19 13:17:10;;;;;;;4.13;2.80;;;40.10;20.40;;;;;;5001398;28;20470;-87
2022/07/19 13:19:38;;;;;;;3.20;2.53;;;39.80;20.30;;;;;;4998345;28;20486;-85
2022/07/19 13:22:06;;;;;;;3.20;2.90;;;39.90;20.70;;;;;;4998744;28;20457;-85
2022/07/19 13:24:33;;;;;;;3.40;2.50;;;40.00;20.90;;;;;;4996084;28;21040;-86
2022/07/19 13:27:20;;;;;;;3.13;2.20;;;39.90;21.10;;;;;;4990066;28;20443;-86